AAL7574 KCLT-KDFW
Flight info
| Callsign | AAL7574 |
|---|---|
| Flight time | N/A |
| Altitude | 40000 |
| Route | ESTRR5 IPTAY CHOPZ THRSR VLKNN Q30 IZAAC YUYUN BEREE3 |
| Aircraft | B772/H-SDE1E3FGHIJ1J3J4J5M1P2RWXYZ/AA1DCD |
Departure
| Time | 2026-05-04 19:21 |
|---|---|
| Airport | Charlotte Douglas International Airport (KCLT) |
Arrival
| Time | N/A |
|---|---|
| Airport | Dallas Fort Worth International Airport (KDFW) |
| Time | Latitude | Longitude | Altitude | Speed | Heading |
|---|---|---|---|---|---|
| 2026-05-04 18:49 | 35.22003 | -80.94003 | 761 ft | 0 kts | 359° |
| 2026-05-04 19:12 | 35.21980 | -80.94003 | 761 ft | 2 kts | 359° |
| 2026-05-04 19:12 | 35.21965 | -80.94002 | 761 ft | 2 kts | 359° |
| 2026-05-04 19:13 | 35.21950 | -80.94002 | 761 ft | 2 kts | 359° |
| 2026-05-04 19:13 | 35.21935 | -80.94002 | 761 ft | 2 kts | 359° |
| 2026-05-04 19:13 | 35.21920 | -80.94002 | 761 ft | 2 kts | 359° |
| 2026-05-04 19:13 | 35.21905 | -80.94004 | 761 ft | 2 kts | 25° |
| 2026-05-04 19:14 | 35.21893 | -80.94014 | 761 ft | 2 kts | 49° |
| 2026-05-04 19:14 | 35.21885 | -80.94030 | 761 ft | 2 kts | 72° |
| 2026-05-04 19:14 | 35.21882 | -80.94048 | 761 ft | 2 kts | 95° |
| 2026-05-04 19:14 | 35.21886 | -80.94065 | 761 ft | 2 kts | 119° |
| 2026-05-04 19:15 | 35.21893 | -80.94077 | 761 ft | 0 kts | 137° |
| 2026-05-04 19:15 | 35.21896 | -80.94080 | 761 ft | 0 kts | 138° |
| 2026-05-04 19:17 | 35.21886 | -80.94069 | 761 ft | 4 kts | 138° |
| 2026-05-04 19:17 | 35.21849 | -80.94029 | 761 ft | 9 kts | 136° |
| 2026-05-04 19:17 | 35.21822 | -80.93949 | 761 ft | 11 kts | 84° |
| 2026-05-04 19:17 | 35.21865 | -80.93862 | 761 ft | 13 kts | 49° |
| 2026-05-04 19:18 | 35.21928 | -80.93775 | 761 ft | 14 kts | 49° |
| 2026-05-04 19:18 | 35.21988 | -80.93712 | 761 ft | 10 kts | 10° |
| 2026-05-04 19:18 | 35.22068 | -80.93715 | 761 ft | 13 kts | 356° |
| 2026-05-04 19:18 | 35.22171 | -80.93723 | 761 ft | 16 kts | 355° |
| 2026-05-04 19:19 | 35.22294 | -80.93734 | 761 ft | 18 kts | 356° |
| 2026-05-04 19:19 | 35.22426 | -80.93746 | 761 ft | 12 kts | 355° |
| 2026-05-04 19:19 | 35.22497 | -80.93714 | 761 ft | 11 kts | 65° |
| 2026-05-04 19:19 | 35.22491 | -80.93628 | 761 ft | 9 kts | 140° |
| 2026-05-04 19:20 | 35.22457 | -80.93615 | 761 ft | 1 kts | 174° |
| 2026-05-04 19:20 | 35.22208 | -80.93592 | 761 ft | 77 kts | 176° |
| 2026-05-04 19:20 | 35.21422 | -80.93523 | 762 ft | 146 kts | 175° |
| 2026-05-04 19:20 | 35.20255 | -80.93411 | 1023 ft | 176 kts | 177° |
| 2026-05-04 19:21 | 35.19086 | -80.93432 | 1817 ft | 171 kts | 185° |
| 2026-05-04 19:21 | 35.17918 | -80.93658 | 2329 ft | 177 kts | 204° |
| 2026-05-04 19:21 | 35.16981 | -80.94727 | 2538 ft | 199 kts | 242° |
| 2026-05-04 19:21 | 35.16506 | -80.96418 | 2794 ft | 223 kts | 252° |
| 2026-05-04 19:22 | 35.16047 | -80.98309 | 3293 ft | 242 kts | 252° |
| 2026-05-04 19:22 | 35.15557 | -81.00337 | 3962 ft | 255 kts | 252° |
| 2026-05-04 19:22 | 35.15051 | -81.02435 | 4750 ft | 263 kts | 253° |
| 2026-05-04 19:22 | 35.14534 | -81.04583 | 5598 ft | 266 kts | 253° |